sensor_id;sensor_type;location;lat;lon;timestamp;P1;durP1;ratioP1;P2;durP2;ratioP2
76336;SDS011;65157;50.082;18.178;2024-01-16T00:00:58;5.30;;;3.60;;
76336;SDS011;65157;50.082;18.178;2024-01-16T00:03:43;5.80;;;3.50;;
76336;SDS011;65157;50.082;18.178;2024-01-16T00:06:10;4.50;;;3.20;;
76336;SDS011;65157;50.082;18.178;2024-01-16T00:08:37;7.90;;;5.10;;
76336;SDS011;65157;50.082;18.178;2024-01-16T00:11:03;6.30;;;3.50;;
76336;SDS011;65157;50.082;18.178;2024-01-16T00:13:31;4.00;;;2.10;;
76336;SDS011;65157;50.082;18.178;2024-01-16T00:15:59;7.80;;;4.70;;
76336;SDS011;65157;50.082;18.178;2024-01-16T00:18:28;6.80;;;4.10;;
76336;SDS011;65157;50.082;18.178;2024-01-16T00:20:54;7.30;;;4.80;;
76336;SDS011;65157;50.082;18.178;2024-01-16T00:23:21;5.50;;;3.90;;
76336;SDS011;65157;50.082;18.178;2024-01-16T00:25:48;4.80;;;3.90;;
76336;SDS011;65157;50.082;18.178;2024-01-16T00:28:15;5.10;;;3.10;;
76336;SDS011;65157;50.082;18.178;2024-01-16T00:30:41;5.20;;;3.20;;
76336;SDS011;65157;50.082;18.178;2024-01-16T00:33:08;4.00;;;2.80;;
76336;SDS011;65157;50.082;18.178;2024-01-16T00:35:35;5.90;;;3.50;;
76336;SDS011;65157;50.082;18.178;2024-01-16T00:38:01;4.20;;;2.60;;
76336;SDS011;65157;50.082;18.178;2024-01-16T00:40:28;6.20;;;3.80;;
76336;SDS011;65157;50.082;18.178;2024-01-16T00:42:54;5.20;;;3.70;;
76336;SDS011;65157;50.082;18.178;2024-01-16T00:45:21;4.20;;;3.00;;
76336;SDS011;65157;50.082;18.178;2024-01-16T00:47:48;4.00;;;3.20;;
76336;SDS011;65157;50.082;18.178;2024-01-16T00:50:14;4.60;;;3.30;;
76336;SDS011;65157;50.082;18.178;2024-01-16T00:52:41;5.70;;;3.10;;
76336;SDS011;65157;50.082;18.178;2024-01-16T00:55:08;4.80;;;3.60;;
76336;SDS011;65157;50.082;18.178;2024-01-16T00:57:34;1.90;;;1.60;;
76336;SDS011;65157;50.082;18.178;2024-01-16T01:00:01;5.90;;;3.70;;
76336;SDS011;65157;50.082;18.178;2024-01-16T01:02:28;6.50;;;4.20;;
76336;SDS011;65157;50.082;18.178;2024-01-16T01:04:54;4.30;;;2.70;;
76336;SDS011;65157;50.082;18.178;2024-01-16T01:07:21;6.50;;;3.70;;
76336;SDS011;65157;50.082;18.178;2024-01-16T01:09:48;4.30;;;3.20;;
76336;SDS011;65157;50.082;18.178;2024-01-16T01:12:14;6.60;;;3.60;;
76336;SDS011;65157;50.082;18.178;2024-01-16T01:14:41;6.40;;;4.40;;
76336;SDS011;65157;50.082;18.178;2024-01-16T01:17:08;6.10;;;3.60;;
76336;SDS011;65157;50.082;18.178;2024-01-16T01:19:34;3.80;;;3.50;;
76336;SDS011;65157;50.082;18.178;2024-01-16T01:22:01;3.50;;;2.80;;
76336;SDS011;65157;50.082;18.178;2024-01-16T01:24:28;5.10;;;3.40;;
76336;SDS011;65157;50.082;18.178;2024-01-16T01:26:54;3.40;;;3.10;;
76336;SDS011;65157;50.082;18.178;2024-01-16T01:29:21;5.30;;;3.10;;
76336;SDS011;65157;50.082;18.178;2024-01-16T01:31:47;2.70;;;2.10;;
76336;SDS011;65157;50.082;18.178;2024-01-16T01:34:14;5.40;;;3.10;;
76336;SDS011;65157;50.082;18.178;2024-01-16T01:36:41;3.00;;;2.50;;
76336;SDS011;65157;50.082;18.178;2024-01-16T01:39:08;4.20;;;3.30;;
76336;SDS011;65157;50.082;18.178;2024-01-16T01:41:35;3.90;;;2.80;;
76336;SDS011;65157;50.082;18.178;2024-01-16T01:44:01;4.20;;;2.80;;
76336;SDS011;65157;50.082;18.178;2024-01-16T01:46:28;3.50;;;2.90;;
76336;SDS011;65157;50.082;18.178;2024-01-16T01:48:55;4.40;;;2.80;;
76336;SDS011;65157;50.082;18.178;2024-01-16T01:51:22;4.50;;;2.90;;
76336;SDS011;65157;50.082;18.178;2024-01-16T01:53:52;3.10;;;2.80;;
76336;SDS011;65157;50.082;18.178;2024-01-16T01:56:20;3.00;;;2.70;;
76336;SDS011;65157;50.082;18.178;2024-01-16T01:58:48;4.10;;;2.60;;
76336;SDS011;65157;50.082;18.178;2024-01-16T02:01:19;1.90;;;1.70;;
76336;SDS011;65157;50.082;18.178;2024-01-16T02:03:48;3.50;;;2.60;;
76336;SDS011;65157;50.082;18.178;2024-01-16T02:06:16;2.20;;;1.80;;
76336;SDS011;65157;50.082;18.178;2024-01-16T02:08:43;4.00;;;2.80;;
76336;SDS011;65157;50.082;18.178;2024-01-16T02:11:12;3.80;;;3.00;;
76336;SDS011;65157;50.082;18.178;2024-01-16T02:13:38;4.90;;;3.20;;
76336;SDS011;65157;50.082;18.178;2024-01-16T02:16:05;3.90;;;2.20;;
76336;SDS011;65157;50.082;18.178;2024-01-16T02:18:31;3.20;;;2.50;;
76336;SDS011;65157;50.082;18.178;2024-01-16T02:21:01;2.90;;;2.70;;
76336;SDS011;65157;50.082;18.178;2024-01-16T02:23:32;2.90;;;2.70;;
76336;SDS011;65157;50.082;18.178;2024-01-16T02:26:00;2.40;;;2.20;;
76336;SDS011;65157;50.082;18.178;2024-01-16T02:28:27;3.00;;;2.70;;
76336;SDS011;65157;50.082;18.178;2024-01-16T02:30:55;3.30;;;2.50;;
76336;SDS011;65157;50.082;18.178;2024-01-16T02:33:21;3.30;;;2.30;;
76336;SDS011;65157;50.082;18.178;2024-01-16T02:35:48;3.20;;;2.30;;
76336;SDS011;65157;50.082;18.178;2024-01-16T02:38:14;2.70;;;1.90;;
76336;SDS011;65157;50.082;18.178;2024-01-16T02:40:41;3.50;;;2.90;;
76336;SDS011;65157;50.082;18.178;2024-01-16T02:43:08;3.60;;;3.30;;
76336;SDS011;65157;50.082;18.178;2024-01-16T02:45:34;1.60;;;1.50;;
76336;SDS011;65157;50.082;18.178;2024-01-16T02:48:01;2.90;;;2.60;;
76336;SDS011;65157;50.082;18.178;2024-01-16T02:50:28;2.40;;;2.20;;
76336;SDS011;65157;50.082;18.178;2024-01-16T02:52:55;3.30;;;3.00;;
76336;SDS011;65157;50.082;18.178;2024-01-16T02:55:21;2.60;;;2.40;;
76336;SDS011;65157;50.082;18.178;2024-01-16T02:57:48;2.50;;;2.00;;
76336;SDS011;65157;50.082;18.178;2024-01-16T03:00:15;3.20;;;2.90;;
76336;SDS011;65157;50.082;18.178;2024-01-16T03:02:41;2.20;;;1.80;;
76336;SDS011;65157;50.082;18.178;2024-01-16T03:05:08;3.00;;;2.80;;
76336;SDS011;65157;50.082;18.178;2024-01-16T03:07:35;3.30;;;2.40;;
76336;SDS011;65157;50.082;18.178;2024-01-16T03:10:02;3.50;;;3.00;;
76336;SDS011;65157;50.082;18.178;2024-01-16T03:14:57;1.80;;;1.70;;
76336;SDS011;65157;50.082;18.178;2024-01-16T03:17:24;2.70;;;2.50;;
76336;SDS011;65157;50.082;18.178;2024-01-16T03:19:52;1.90;;;1.80;;
76336;SDS011;65157;50.082;18.178;2024-01-16T03:22:19;2.00;;;1.80;;
76336;SDS011;65157;50.082;18.178;2024-01-16T03:24:45;3.20;;;2.90;;
76336;SDS011;65157;50.082;18.178;2024-01-16T03:27:12;2.20;;;2.00;;
76336;SDS011;65157;50.082;18.178;2024-01-16T03:29:39;2.90;;;2.70;;
76336;SDS011;65157;50.082;18.178;2024-01-16T03:32:05;1.60;;;1.40;;
76336;SDS011;65157;50.082;18.178;2024-01-16T03:34:32;1.90;;;1.80;;
76336;SDS011;65157;50.082;18.178;2024-01-16T03:36:59;1.50;;;1.40;;
76336;SDS011;65157;50.082;18.178;2024-01-16T03:39:25;1.30;;;1.30;;
76336;SDS011;65157;50.082;18.178;2024-01-16T03:41:52;1.60;;;1.50;;
76336;SDS011;65157;50.082;18.178;2024-01-16T03:44:19;2.00;;;1.90;;
76336;SDS011;65157;50.082;18.178;2024-01-16T03:46:45;2.90;;;2.70;;
76336;SDS011;65157;50.082;18.178;2024-01-16T03:49:12;3.30;;;3.00;;
76336;SDS011;65157;50.082;18.178;2024-01-16T03:51:38;1.80;;;1.70;;
76336;SDS011;65157;50.082;18.178;2024-01-16T03:54:05;2.70;;;2.50;;
76336;SDS011;65157;50.082;18.178;2024-01-16T03:56:32;1.90;;;1.60;;
76336;SDS011;65157;50.082;18.178;2024-01-16T03:58:58;3.00;;;2.80;;
76336;SDS011;65157;50.082;18.178;2024-01-16T04:01:32;2.20;;;2.10;;
76336;SDS011;65157;50.082;18.178;2024-01-16T04:03:59;1.90;;;1.80;;
76336;SDS011;65157;50.082;18.178;2024-01-16T04:06:26;2.70;;;2.40;;
76336;SDS011;65157;50.082;18.178;2024-01-16T04:08:52;1.70;;;1.60;;
76336;SDS011;65157;50.082;18.178;2024-01-16T04:11:19;1.50;;;1.40;;
76336;SDS011;65157;50.082;18.178;2024-01-16T04:13:46;3.10;;;2.40;;
76336;SDS011;65157;50.082;18.178;2024-01-16T04:16:12;2.60;;;2.30;;
76336;SDS011;65157;50.082;18.178;2024-01-16T04:18:39;1.70;;;1.60;;
76336;SDS011;65157;50.082;18.178;2024-01-16T04:21:08;2.20;;;2.10;;
76336;SDS011;65157;50.082;18.178;2024-01-16T04:23:35;2.50;;;2.30;;
76336;SDS011;65157;50.082;18.178;2024-01-16T04:26:02;1.30;;;1.30;;
76336;SDS011;65157;50.082;18.178;2024-01-16T04:28:29;1.30;;;1.20;;
76336;SDS011;65157;50.082;18.178;2024-01-16T04:30:56;3.60;;;1.60;;
76336;SDS011;65157;50.082;18.178;2024-01-16T04:33:22;1.60;;;1.50;;
76336;SDS011;65157;50.082;18.178;2024-01-16T04:35:49;2.50;;;2.20;;
76336;SDS011;65157;50.082;18.178;2024-01-16T04:38:16;1.90;;;1.60;;
76336;SDS011;65157;50.082;18.178;2024-01-16T04:40:42;2.00;;;1.60;;
76336;SDS011;65157;50.082;18.178;2024-01-16T04:43:09;3.30;;;2.80;;
76336;SDS011;65157;50.082;18.178;2024-01-16T04:45:36;2.30;;;2.20;;
76336;SDS011;65157;50.082;18.178;2024-01-16T04:48:02;2.20;;;2.00;;
76336;SDS011;65157;50.082;18.178;2024-01-16T04:50:29;3.10;;;2.20;;
76336;SDS011;65157;50.082;18.178;2024-01-16T04:52:56;3.20;;;2.00;;
76336;SDS011;65157;50.082;18.178;2024-01-16T04:57:50;1.40;;;1.30;;
76336;SDS011;65157;50.082;18.178;2024-01-16T05:00:17;3.30;;;3.00;;
76336;SDS011;65157;50.082;18.178;2024-01-16T05:02:43;2.60;;;2.40;;
76336;SDS011;65157;50.082;18.178;2024-01-16T05:05:10;1.60;;;1.50;;
76336;SDS011;65157;50.082;18.178;2024-01-16T05:07:37;3.00;;;2.80;;
76336;SDS011;65157;50.082;18.178;2024-01-16T05:10:04;2.30;;;1.90;;
76336;SDS011;65157;50.082;18.178;2024-01-16T05:12:31;3.00;;;2.60;;
76336;SDS011;65157;50.082;18.178;2024-01-16T05:14:58;2.40;;;2.00;;
76336;SDS011;65157;50.082;18.178;2024-01-16T05:17:24;4.10;;;3.00;;
76336;SDS011;65157;50.082;18.178;2024-01-16T05:19:51;3.10;;;2.50;;
76336;SDS011;65157;50.082;18.178;2024-01-16T05:22:18;3.90;;;3.50;;
76336;SDS011;65157;50.082;18.178;2024-01-16T05:24:45;3.20;;;2.50;;
76336;SDS011;65157;50.082;18.178;2024-01-16T05:27:11;4.40;;;3.20;;
76336;SDS011;65157;50.082;18.178;2024-01-16T05:29:40;3.80;;;2.80;;
76336;SDS011;65157;50.082;18.178;2024-01-16T05:32:07;4.50;;;3.30;;
76336;SDS011;65157;50.082;18.178;2024-01-16T05:34:34;3.40;;;2.40;;
76336;SDS011;65157;50.082;18.178;2024-01-16T05:37:00;3.00;;;2.20;;
76336;SDS011;65157;50.082;18.178;2024-01-16T05:39:27;4.70;;;3.00;;
76336;SDS011;65157;50.082;18.178;2024-01-16T05:41:54;7.50;;;3.70;;
76336;SDS011;65157;50.082;18.178;2024-01-16T05:44:20;17.20;;;5.80;;
76336;SDS011;65157;50.082;18.178;2024-01-16T05:46:47;35.70;;;10.90;;
76336;SDS011;65157;50.082;18.178;2024-01-16T05:49:13;22.80;;;6.50;;
76336;SDS011;65157;50.082;18.178;2024-01-16T05:51:40;36.50;;;11.40;;
76336;SDS011;65157;50.082;18.178;2024-01-16T05:54:07;43.80;;;13.70;;
76336;SDS011;65157;50.082;18.178;2024-01-16T06:00:16;39.70;;;12.60;;
76336;SDS011;65157;50.082;18.178;2024-01-16T06:02:44;33.60;;;12.20;;
76336;SDS011;65157;50.082;18.178;2024-01-16T06:05:10;26.50;;;9.40;;
76336;SDS011;65157;50.082;18.178;2024-01-16T06:07:37;9.60;;;5.00;;
76336;SDS011;65157;50.082;18.178;2024-01-16T06:10:04;19.60;;;8.00;;
76336;SDS011;65157;50.082;18.178;2024-01-16T06:12:31;24.10;;;9.50;;
76336;SDS011;65157;50.082;18.178;2024-01-16T06:14:58;21.80;;;8.20;;
76336;SDS011;65157;50.082;18.178;2024-01-16T06:17:24;13.00;;;5.10;;
76336;SDS011;65157;50.082;18.178;2024-01-16T06:19:51;29.90;;;10.10;;
76336;SDS011;65157;50.082;18.178;2024-01-16T06:22:18;16.10;;;6.80;;
76336;SDS011;65157;50.082;18.178;2024-01-16T06:24:44;10.90;;;5.40;;
76336;SDS011;65157;50.082;18.178;2024-01-16T06:27:11;14.80;;;6.70;;
76336;SDS011;65157;50.082;18.178;2024-01-16T06:29:38;6.90;;;4.50;;
76336;SDS011;65157;50.082;18.178;2024-01-16T06:32:04;6.00;;;3.10;;
76336;SDS011;65157;50.082;18.178;2024-01-16T06:34:31;4.80;;;3.40;;
76336;SDS011;65157;50.082;18.178;2024-01-16T06:36:57;8.80;;;4.60;;
76336;SDS011;65157;50.082;18.178;2024-01-16T06:39:24;4.30;;;2.30;;
76336;SDS011;65157;50.082;18.178;2024-01-16T06:41:51;10.10;;;4.40;;
76336;SDS011;65157;50.082;18.178;2024-01-16T06:44:18;10.60;;;4.90;;
76336;SDS011;65157;50.082;18.178;2024-01-16T06:49:11;2.60;;;1.80;;
76336;SDS011;65157;50.082;18.178;2024-01-16T06:51:38;3.80;;;1.80;;
76336;SDS011;65157;50.082;18.178;2024-01-16T06:54:05;3.30;;;1.90;;
76336;SDS011;65157;50.082;18.178;2024-01-16T06:56:31;2.90;;;2.70;;
76336;SDS011;65157;50.082;18.178;2024-01-16T06:58:58;2.40;;;2.20;;
76336;SDS011;65157;50.082;18.178;2024-01-16T07:01:25;3.80;;;2.90;;
76336;SDS011;65157;50.082;18.178;2024-01-16T07:03:52;4.00;;;3.40;;
76336;SDS011;65157;50.082;18.178;2024-01-16T07:06:19;3.70;;;2.50;;
76336;SDS011;65157;50.082;18.178;2024-01-16T07:08:46;3.20;;;2.90;;
76336;SDS011;65157;50.082;18.178;2024-01-16T07:11:12;5.10;;;2.90;;
76336;SDS011;65157;50.082;18.178;2024-01-16T07:13:39;5.40;;;3.20;;
76336;SDS011;65157;50.082;18.178;2024-01-16T07:16:10;3.60;;;2.80;;
76336;SDS011;65157;50.082;18.178;2024-01-16T07:18:37;5.50;;;3.00;;
76336;SDS011;65157;50.082;18.178;2024-01-16T07:23:31;2.80;;;1.90;;
76336;SDS011;65157;50.082;18.178;2024-01-16T07:25:57;3.50;;;3.20;;
76336;SDS011;65157;50.082;18.178;2024-01-16T07:28:24;2.10;;;1.90;;
76336;SDS011;65157;50.082;18.178;2024-01-16T07:30:52;5.10;;;3.00;;
76336;SDS011;65157;50.082;18.178;2024-01-16T07:33:20;4.80;;;3.10;;
76336;SDS011;65157;50.082;18.178;2024-01-16T07:35:46;4.70;;;2.60;;
76336;SDS011;65157;50.082;18.178;2024-01-16T07:38:13;6.50;;;3.70;;
76336;SDS011;65157;50.082;18.178;2024-01-16T07:40:40;3.00;;;2.70;;
76336;SDS011;65157;50.082;18.178;2024-01-16T07:43:06;4.30;;;3.90;;
76336;SDS011;65157;50.082;18.178;2024-01-16T07:45:33;5.70;;;4.00;;
76336;SDS011;65157;50.082;18.178;2024-01-16T07:48:00;7.10;;;5.00;;
76336;SDS011;65157;50.082;18.178;2024-01-16T07:50:26;8.00;;;3.70;;
76336;SDS011;65157;50.082;18.178;2024-01-16T07:52:53;6.90;;;4.10;;
76336;SDS011;65157;50.082;18.178;2024-01-16T07:55:20;7.70;;;5.40;;
76336;SDS011;65157;50.082;18.178;2024-01-16T07:57:46;9.90;;;5.20;;
76336;SDS011;65157;50.082;18.178;2024-01-16T08:00:13;9.80;;;5.50;;
76336;SDS011;65157;50.082;18.178;2024-01-16T08:02:41;11.00;;;6.60;;
76336;SDS011;65157;50.082;18.178;2024-01-16T08:05:09;12.50;;;4.90;;
76336;SDS011;65157;50.082;18.178;2024-01-16T08:07:35;15.90;;;6.80;;
76336;SDS011;65157;50.082;18.178;2024-01-16T08:10:02;23.10;;;8.00;;
76336;SDS011;65157;50.082;18.178;2024-01-16T08:12:30;6.70;;;3.20;;
76336;SDS011;65157;50.082;18.178;2024-01-16T08:14:57;16.10;;;5.80;;
76336;SDS011;65157;50.082;18.178;2024-01-16T08:17:23;8.80;;;4.70;;
76336;SDS011;65157;50.082;18.178;2024-01-16T08:19:50;9.20;;;4.90;;
76336;SDS011;65157;50.082;18.178;2024-01-16T08:22:16;11.20;;;5.50;;
76336;SDS011;65157;50.082;18.178;2024-01-16T08:24:43;6.20;;;3.80;;
76336;SDS011;65157;50.082;18.178;2024-01-16T08:27:10;5.10;;;3.40;;
76336;SDS011;65157;50.082;18.178;2024-01-16T08:29:36;4.20;;;3.80;;
76336;SDS011;65157;50.082;18.178;2024-01-16T08:32:03;4.00;;;2.40;;
76336;SDS011;65157;50.082;18.178;2024-01-16T08:34:30;3.40;;;3.10;;
76336;SDS011;65157;50.082;18.178;2024-01-16T08:36:57;4.10;;;2.60;;
76336;SDS011;65157;50.082;18.178;2024-01-16T08:39:26;2.70;;;2.50;;
76336;SDS011;65157;50.082;18.178;2024-01-16T08:41:53;6.70;;;3.00;;
76336;SDS011;65157;50.082;18.178;2024-01-16T08:46:47;3.80;;;3.50;;
76336;SDS011;65157;50.082;18.178;2024-01-16T08:49:13;5.60;;;5.00;;
76336;SDS011;65157;50.082;18.178;2024-01-16T08:51:40;4.60;;;2.40;;
76336;SDS011;65157;50.082;18.178;2024-01-16T08:54:07;5.10;;;3.50;;
76336;SDS011;65157;50.082;18.178;2024-01-16T08:56:34;3.80;;;2.30;;
76336;SDS011;65157;50.082;18.178;2024-01-16T08:59:00;4.70;;;3.20;;
76336;SDS011;65157;50.082;18.178;2024-01-16T09:01:28;5.10;;;4.30;;
76336;SDS011;65157;50.082;18.178;2024-01-16T09:03:55;6.90;;;3.60;;
76336;SDS011;65157;50.082;18.178;2024-01-16T09:06:22;4.10;;;3.10;;
76336;SDS011;65157;50.082;18.178;2024-01-16T09:08:49;5.10;;;3.10;;
76336;SDS011;65157;50.082;18.178;2024-01-16T09:11:16;5.00;;;3.80;;
76336;SDS011;65157;50.082;18.178;2024-01-16T09:13:42;9.50;;;4.20;;
76336;SDS011;65157;50.082;18.178;2024-01-16T09:16:09;9.10;;;4.40;;
76336;SDS011;65157;50.082;18.178;2024-01-16T09:18:35;5.20;;;3.60;;
76336;SDS011;65157;50.082;18.178;2024-01-16T09:21:02;2.70;;;2.40;;
76336;SDS011;65157;50.082;18.178;2024-01-16T09:23:29;4.00;;;3.40;;
76336;SDS011;65157;50.082;18.178;2024-01-16T09:25:56;9.80;;;5.00;;
76336;SDS011;65157;50.082;18.178;2024-01-16T09:28:23;8.60;;;5.10;;
76336;SDS011;65157;50.082;18.178;2024-01-16T09:30:49;8.40;;;4.20;;
76336;SDS011;65157;50.082;18.178;2024-01-16T09:33:16;9.00;;;4.70;;
76336;SDS011;65157;50.082;18.178;2024-01-16T09:35:43;6.10;;;3.30;;
76336;SDS011;65157;50.082;18.178;2024-01-16T09:38:09;5.60;;;3.60;;
76336;SDS011;65157;50.082;18.178;2024-01-16T09:40:36;4.00;;;2.50;;
76336;SDS011;65157;50.082;18.178;2024-01-16T09:43:02;4.40;;;2.70;;
76336;SDS011;65157;50.082;18.178;2024-01-16T09:45:29;5.90;;;3.70;;
76336;SDS011;65157;50.082;18.178;2024-01-16T09:50:25;4.00;;;2.50;;
76336;SDS011;65157;50.082;18.178;2024-01-16T09:52:53;5.10;;;2.60;;
76336;SDS011;65157;50.082;18.178;2024-01-16T09:55:19;5.50;;;2.90;;
76336;SDS011;65157;50.082;18.178;2024-01-16T09:57:46;5.30;;;2.50;;
76336;SDS011;65157;50.082;18.178;2024-01-16T10:00:18;3.70;;;2.20;;
76336;SDS011;65157;50.082;18.178;2024-01-16T10:02:45;4.20;;;2.30;;
76336;SDS011;65157;50.082;18.178;2024-01-16T10:05:13;4.40;;;2.40;;
76336;SDS011;65157;50.082;18.178;2024-01-16T10:07:42;3.30;;;2.50;;
76336;SDS011;65157;50.082;18.178;2024-01-16T10:10:09;4.90;;;2.60;;
76336;SDS011;65157;50.082;18.178;2024-01-16T10:12:37;4.20;;;2.30;;
76336;SDS011;65157;50.082;18.178;2024-01-16T10:15:08;2.80;;;1.90;;
76336;SDS011;65157;50.082;18.178;2024-01-16T10:17:36;2.40;;;1.90;;
76336;SDS011;65157;50.082;18.178;2024-01-16T10:20:03;2.10;;;1.40;;
76336;SDS011;65157;50.082;18.178;2024-01-16T10:22:32;2.80;;;2.60;;
76336;SDS011;65157;50.082;18.178;2024-01-16T10:25:12;3.80;;;3.00;;
76336;SDS011;65157;50.082;18.178;2024-01-16T10:27:39;2.80;;;2.30;;
76336;SDS011;65157;50.082;18.178;2024-01-16T10:30:07;2.70;;;2.20;;
76336;SDS011;65157;50.082;18.178;2024-01-16T10:32:37;2.60;;;2.40;;
76336;SDS011;65157;50.082;18.178;2024-01-16T10:35:10;2.30;;;1.80;;
76336;SDS011;65157;50.082;18.178;2024-01-16T10:37:47;4.00;;;3.70;;
76336;SDS011;65157;50.082;18.178;2024-01-16T10:40:19;3.10;;;2.20;;
76336;SDS011;65157;50.082;18.178;2024-01-16T10:42:58;1.10;;;1.00;;
76336;SDS011;65157;50.082;18.178;2024-01-16T10:45:26;5.40;;;3.10;;
76336;SDS011;65157;50.082;18.178;2024-01-16T10:48:03;4.70;;;2.10;;
76336;SDS011;65157;50.082;18.178;2024-01-16T10:50:32;5.50;;;2.40;;
76336;SDS011;65157;50.082;18.178;2024-01-16T10:53:00;2.70;;;1.90;;
76336;SDS011;65157;50.082;18.178;2024-01-16T10:55:30;3.50;;;3.00;;
76336;SDS011;65157;50.082;18.178;2024-01-16T10:57:58;1.90;;;1.80;;
76336;SDS011;65157;50.082;18.178;2024-01-16T11:00:29;2.40;;;2.20;;
76336;SDS011;65157;50.082;18.178;2024-01-16T11:03:01;2.40;;;1.90;;
76336;SDS011;65157;50.082;18.178;2024-01-16T11:05:32;1.70;;;1.50;;
76336;SDS011;65157;50.082;18.178;2024-01-16T11:08:00;1.80;;;1.70;;
76336;SDS011;65157;50.082;18.178;2024-01-16T11:10:27;2.30;;;2.20;;
76336;SDS011;65157;50.082;18.178;2024-01-16T11:15:22;1.40;;;1.30;;
76336;SDS011;65157;50.082;18.178;2024-01-16T11:17:50;5.90;;;2.60;;
76336;SDS011;65157;50.082;18.178;2024-01-16T11:20:17;3.40;;;2.60;;
76336;SDS011;65157;50.082;18.178;2024-01-16T11:22:45;10.80;;;4.30;;
76336;SDS011;65157;50.082;18.178;2024-01-16T11:25:14;7.80;;;3.60;;
76336;SDS011;65157;50.082;18.178;2024-01-16T11:27:43;9.90;;;3.30;;
76336;SDS011;65157;50.082;18.178;2024-01-16T11:30:11;14.50;;;4.60;;
76336;SDS011;65157;50.082;18.178;2024-01-16T11:32:39;16.10;;;5.90;;
76336;SDS011;65157;50.082;18.178;2024-01-16T11:35:07;11.00;;;4.80;;
76336;SDS011;65157;50.082;18.178;2024-01-16T11:37:35;10.00;;;5.80;;
76336;SDS011;65157;50.082;18.178;2024-01-16T11:42:44;5.30;;;3.10;;
76336;SDS011;65157;50.082;18.178;2024-01-16T11:50:35;1.70;;;1.40;;
76336;SDS011;65157;50.082;18.178;2024-01-16T11:53:03;2.10;;;1.90;;
76336;SDS011;65157;50.082;18.178;2024-01-16T12:00:33;2.40;;;1.60;;
76336;SDS011;65157;50.082;18.178;2024-01-16T12:03:02;2.90;;;2.00;;
76336;SDS011;65157;50.082;18.178;2024-01-16T12:05:30;2.50;;;2.00;;
76336;SDS011;65157;50.082;18.178;2024-01-16T12:07:57;2.80;;;2.20;;
76336;SDS011;65157;50.082;18.178;2024-01-16T12:10:25;2.50;;;2.30;;
76336;SDS011;65157;50.082;18.178;2024-01-16T12:12:57;2.30;;;2.00;;
76336;SDS011;65157;50.082;18.178;2024-01-16T12:15:25;1.80;;;1.20;;
76336;SDS011;65157;50.082;18.178;2024-01-16T12:20:22;1.10;;;1.10;;
76336;SDS011;65157;50.082;18.178;2024-01-16T12:23:06;2.80;;;2.00;;
76336;SDS011;65157;50.082;18.178;2024-01-16T12:25:34;3.70;;;2.70;;
76336;SDS011;65157;50.082;18.178;2024-01-16T12:28:02;3.20;;;2.10;;
76336;SDS011;65157;50.082;18.178;2024-01-16T12:30:33;4.40;;;2.30;;
76336;SDS011;65157;50.082;18.178;2024-01-16T12:33:07;4.20;;;2.40;;
76336;SDS011;65157;50.082;18.178;2024-01-16T12:35:39;6.40;;;3.10;;
76336;SDS011;65157;50.082;18.178;2024-01-16T12:38:10;5.00;;;2.70;;
76336;SDS011;65157;50.082;18.178;2024-01-16T12:40:42;8.10;;;4.10;;
76336;SDS011;65157;50.082;18.178;2024-01-16T12:43:10;12.30;;;5.60;;
76336;SDS011;65157;50.082;18.178;2024-01-16T12:45:37;8.90;;;4.00;;
76336;SDS011;65157;50.082;18.178;2024-01-16T12:48:04;9.90;;;5.50;;
76336;SDS011;65157;50.082;18.178;2024-01-16T12:50:32;9.80;;;6.00;;
76336;SDS011;65157;50.082;18.178;2024-01-16T12:53:06;9.10;;;6.10;;
76336;SDS011;65157;50.082;18.178;2024-01-16T12:55:37;8.30;;;4.80;;
76336;SDS011;65157;50.082;18.178;2024-01-16T12:58:15;7.80;;;5.10;;
76336;SDS011;65157;50.082;18.178;2024-01-16T13:00:46;6.20;;;4.40;;
76336;SDS011;65157;50.082;18.178;2024-01-16T13:03:15;7.10;;;4.30;;
76336;SDS011;65157;50.082;18.178;2024-01-16T13:05:46;5.80;;;3.50;;
76336;SDS011;65157;50.082;18.178;2024-01-16T13:08:23;8.60;;;4.10;;
76336;SDS011;65157;50.082;18.178;2024-01-16T13:11:07;11.70;;;5.60;;
76336;SDS011;65157;50.082;18.178;2024-01-16T13:13:35;11.00;;;6.10;;
76336;SDS011;65157;50.082;18.178;2024-01-16T13:18:31;10.70;;;4.80;;
76336;SDS011;65157;50.082;18.178;2024-01-16T13:20:59;12.40;;;6.90;;
76336;SDS011;65157;50.082;18.178;2024-01-16T13:23:27;14.00;;;6.50;;
76336;SDS011;65157;50.082;18.178;2024-01-16T13:25:55;11.20;;;6.30;;
76336;SDS011;65157;50.082;18.178;2024-01-16T13:28:23;10.70;;;5.50;;
76336;SDS011;65157;50.082;18.178;2024-01-16T13:33:16;12.70;;;5.30;;
76336;SDS011;65157;50.082;18.178;2024-01-16T13:35:44;11.40;;;5.00;;
76336;SDS011;65157;50.082;18.178;2024-01-16T13:38:12;10.70;;;5.30;;
76336;SDS011;65157;50.082;18.178;2024-01-16T13:40:39;13.10;;;7.00;;
76336;SDS011;65157;50.082;18.178;2024-01-16T13:43:06;14.20;;;7.30;;
76336;SDS011;65157;50.082;18.178;2024-01-16T13:45:33;12.40;;;6.40;;
76336;SDS011;65157;50.082;18.178;2024-01-16T13:48:00;10.70;;;5.90;;
76336;SDS011;65157;50.082;18.178;2024-01-16T13:50:27;11.50;;;5.30;;
76336;SDS011;65157;50.082;18.178;2024-01-16T13:52:54;11.60;;;4.70;;
76336;SDS011;65157;50.082;18.178;2024-01-16T13:55:20;5.30;;;3.30;;
76336;SDS011;65157;50.082;18.178;2024-01-16T13:57:48;9.40;;;3.60;;
76336;SDS011;65157;50.082;18.178;2024-01-16T14:00:15;6.10;;;4.10;;
76336;SDS011;65157;50.082;18.178;2024-01-16T14:02:44;6.10;;;3.90;;
76336;SDS011;65157;50.082;18.178;2024-01-16T14:05:17;8.20;;;4.90;;
76336;SDS011;65157;50.082;18.178;2024-01-16T14:07:47;9.40;;;4.70;;
76336;SDS011;65157;50.082;18.178;2024-01-16T14:10:17;12.70;;;6.10;;
76336;SDS011;65157;50.082;18.178;2024-01-16T14:12:45;9.00;;;4.80;;
76336;SDS011;65157;50.082;18.178;2024-01-16T14:15:15;6.80;;;4.30;;
76336;SDS011;65157;50.082;18.178;2024-01-16T14:17:44;14.00;;;7.90;;
76336;SDS011;65157;50.082;18.178;2024-01-16T14:20:12;8.80;;;4.70;;
76336;SDS011;65157;50.082;18.178;2024-01-16T14:22:39;7.50;;;4.60;;
76336;SDS011;65157;50.082;18.178;2024-01-16T14:25:07;8.60;;;4.30;;
76336;SDS011;65157;50.082;18.178;2024-01-16T14:27:39;5.50;;;3.70;;
76336;SDS011;65157;50.082;18.178;2024-01-16T14:30:07;3.60;;;3.00;;
76336;SDS011;65157;50.082;18.178;2024-01-16T14:32:38;5.40;;;2.60;;
76336;SDS011;65157;50.082;18.178;2024-01-16T14:35:06;4.50;;;2.70;;
76336;SDS011;65157;50.082;18.178;2024-01-16T14:40:01;3.00;;;2.50;;
76336;SDS011;65157;50.082;18.178;2024-01-16T14:42:30;5.60;;;2.80;;
76336;SDS011;65157;50.082;18.178;2024-01-16T14:44:57;6.20;;;3.60;;
76336;SDS011;65157;50.082;18.178;2024-01-16T14:47:23;5.70;;;2.60;;
76336;SDS011;65157;50.082;18.178;2024-01-16T14:49:51;4.50;;;2.30;;
76336;SDS011;65157;50.082;18.178;2024-01-16T14:52:18;4.40;;;3.70;;
76336;SDS011;65157;50.082;18.178;2024-01-16T14:54:45;5.30;;;3.80;;
76336;SDS011;65157;50.082;18.178;2024-01-16T14:57:11;6.30;;;3.50;;
76336;SDS011;65157;50.082;18.178;2024-01-16T14:59:38;4.90;;;2.70;;
76336;SDS011;65157;50.082;18.178;2024-01-16T15:02:05;3.70;;;2.80;;
76336;SDS011;65157;50.082;18.178;2024-01-16T15:04:31;3.40;;;2.50;;
76336;SDS011;65157;50.082;18.178;2024-01-16T15:06:58;5.20;;;3.70;;
76336;SDS011;65157;50.082;18.178;2024-01-16T15:09:24;5.80;;;3.30;;
76336;SDS011;65157;50.082;18.178;2024-01-16T15:11:51;6.20;;;3.80;;
76336;SDS011;65157;50.082;18.178;2024-01-16T15:14:18;7.60;;;5.00;;
76336;SDS011;65157;50.082;18.178;2024-01-16T15:16:44;3.90;;;3.20;;
76336;SDS011;65157;50.082;18.178;2024-01-16T15:19:11;3.60;;;2.30;;